createdAt,value
2022-11-04T00:00:24.048Z,15.52
2022-11-04T00:02:53.433Z,15.54
2022-11-04T00:05:19.929Z,15.61
2022-11-04T00:08:05.127Z,15.46
2022-11-04T00:10:56.095Z,15.47
2022-11-04T00:13:22.762Z,15.67
2022-11-04T00:16:08.083Z,15.50
2022-11-04T00:18:36.236Z,15.47
2022-11-04T00:21:21.400Z,15.46
2022-11-04T00:24:06.349Z,15.69
2022-11-04T00:26:51.175Z,15.52
2022-11-04T00:29:17.616Z,15.55
2022-11-04T00:32:02.478Z,15.59
2022-11-04T00:34:29.022Z,15.62
2022-11-04T00:36:55.561Z,16.13
2022-11-04T00:39:22.152Z,16.15
2022-11-04T00:41:48.672Z,16.04
2022-11-04T00:44:19.393Z,16.03
2022-11-04T00:46:49.041Z,16.21
2022-11-04T00:49:21.883Z,16.68
2022-11-04T00:51:51.138Z,16.56
2022-11-04T00:54:17.695Z,16.64
2022-11-04T00:56:44.269Z,16.40
2022-11-04T00:59:13.522Z,16.23
2022-11-04T01:01:41.924Z,15.91
2022-11-04T01:04:11.401Z,15.84
2022-11-04T01:06:38.319Z,15.81
2022-11-04T01:09:08.721Z,15.72
2022-11-04T01:11:35.254Z,15.80
2022-11-04T01:14:01.923Z,15.69
2022-11-04T01:16:33.670Z,15.68
2022-11-04T01:19:00.280Z,15.73
2022-11-04T01:21:27.395Z,15.68
2022-11-04T01:23:54.083Z,15.58
2022-11-04T01:26:24.817Z,15.80
2022-11-04T01:28:54.725Z,15.79
2022-11-04T01:31:27.545Z,15.76
2022-11-04T01:33:58.447Z,15.84
2022-11-04T01:36:28.304Z,15.83
2022-11-04T01:39:00.016Z,16.20
2022-11-04T01:41:32.063Z,16.68
2022-11-04T01:44:04.698Z,16.29
2022-11-04T01:46:48.494Z,16.00
2022-11-04T01:49:29.265Z,15.83
2022-11-04T01:52:17.066Z,16.09
2022-11-04T01:54:47.944Z,16.01
2022-11-04T01:57:31.831Z,15.77
2022-11-04T02:00:06.162Z,15.72
2022-11-04T02:02:35.099Z,15.66
2022-11-04T02:05:01.850Z,15.67
2022-11-04T02:07:33.096Z,16.13
2022-11-04T02:10:05.919Z,15.86
2022-11-04T02:12:50.625Z,15.88
2022-11-04T02:15:37.534Z,15.84
2022-11-04T02:18:23.786Z,15.72
2022-11-04T02:21:38.670Z,15.69
2022-11-04T02:24:26.958Z,15.71
2022-11-04T02:27:18.098Z,15.76
2022-11-04T02:29:59.956Z,15.83
2022-11-04T02:32:26.485Z,15.98
2022-11-04T02:35:08.232Z,16.02
2022-11-04T02:38:01.073Z,16.09
2022-11-04T02:40:38.516Z,15.96
2022-11-04T02:43:23.564Z,15.89
2022-11-04T02:46:06.194Z,16.38
2022-11-04T02:48:53.359Z,16.28
2022-11-04T02:51:28.966Z,16.00
2022-11-04T02:54:18.817Z,15.99
2022-11-04T02:56:50.032Z,15.86
2022-11-04T02:59:39.313Z,15.99
2022-11-04T03:02:11.134Z,15.85
2022-11-04T03:04:40.466Z,16.30
2022-11-04T03:09:52.304Z,16.11
2022-11-04T03:12:24.890Z,15.99
2022-11-04T03:14:56.885Z,16.00
2022-11-04T03:17:40.647Z,16.59
2022-11-04T03:20:17.118Z,16.35
2022-11-04T03:22:46.582Z,16.23
2022-11-04T03:25:13.529Z,16.03
2022-11-04T03:27:46.181Z,16.28
2022-11-04T03:33:32.803Z,15.72
2022-11-04T03:36:03.880Z,15.81
2022-11-04T03:38:31.511Z,15.79
2022-11-04T03:41:01.096Z,15.60
2022-11-04T03:43:29.831Z,15.59
2022-11-04T03:45:56.521Z,15.66
2022-11-04T03:48:23.825Z,15.86
2022-11-04T03:50:51.249Z,15.73
2022-11-04T03:53:22.608Z,16.10
2022-11-04T03:56:13.778Z,16.23
2022-11-04T03:59:10.000Z,16.49
2022-11-04T04:02:01.121Z,16.75
2022-11-04T04:04:33.726Z,16.89
2022-11-04T04:07:24.180Z,17.12
2022-11-04T04:10:04.110Z,16.85
2022-11-04T04:12:36.645Z,17.39
2022-11-04T04:15:06.730Z,17.17
2022-11-04T04:17:50.413Z,17.40
2022-11-04T04:20:21.332Z,17.37
2022-11-04T04:23:03.735Z,17.46
2022-11-04T04:25:51.309Z,17.87
2022-11-04T04:28:19.581Z,17.61
2022-11-04T04:30:48.645Z,17.90
2022-11-04T04:33:18.249Z,17.86
2022-11-04T04:35:58.955Z,17.85
2022-11-04T04:38:50.964Z,17.98
2022-11-04T04:41:45.129Z,18.32
2022-11-04T04:44:43.623Z,18.11
2022-11-04T04:47:19.831Z,18.18
2022-11-04T04:49:59.929Z,18.06
2022-11-04T04:52:32.272Z,18.05
2022-11-04T04:54:59.864Z,17.62
2022-11-04T04:57:29.237Z,18.07
2022-11-04T04:59:55.863Z,18.21
2022-11-04T05:02:22.627Z,18.19
2022-11-04T05:04:49.327Z,18.14
2022-11-04T05:07:15.942Z,17.96
2022-11-04T05:09:42.803Z,18.07
2022-11-04T05:12:10.150Z,17.84
2022-11-04T05:14:36.781Z,17.74
2022-11-04T05:17:03.612Z,17.60
2022-11-04T05:19:30.095Z,18.03
2022-11-04T05:22:01.252Z,18.21
2022-11-04T05:24:27.850Z,17.98
2022-11-04T05:26:54.399Z,18.05
2022-11-04T05:29:21.045Z,18.16
2022-11-04T05:31:50.033Z,17.99
2022-11-04T05:34:16.815Z,17.73
2022-11-04T05:36:43.351Z,17.94
2022-11-04T05:39:13.433Z,18.08
2022-11-04T05:41:43.019Z,17.76
2022-11-04T05:44:16.540Z,17.53
2022-11-04T05:46:43.213Z,17.58
2022-11-04T05:49:09.736Z,17.53
2022-11-04T05:51:36.572Z,17.35
2022-11-04T05:54:03.617Z,17.13
2022-11-04T05:56:39.682Z,17.04
2022-11-04T05:59:06.235Z,17.03
2022-11-04T06:01:38.388Z,16.95
2022-11-04T06:04:06.450Z,17.04
2022-11-04T06:06:35.723Z,16.99
2022-11-04T06:09:03.518Z,16.91
2022-11-04T06:11:31.349Z,17.18
2022-11-04T06:13:58.483Z,17.27
2022-11-04T06:16:25.488Z,17.00
2022-11-04T06:18:52.520Z,16.86
2022-11-04T06:21:34.456Z,16.77
2022-11-04T06:24:04.910Z,16.32
2022-11-04T06:26:31.416Z,16.21
2022-11-04T06:28:57.937Z,16.34
2022-11-04T06:31:24.619Z,16.97
2022-11-04T06:33:51.122Z,16.26
2022-11-04T06:36:17.850Z,16.03
2022-11-04T06:38:44.430Z,15.87
2022-11-04T06:41:14.649Z,15.87
2022-11-04T06:43:41.193Z,15.77
2022-11-04T06:46:24.440Z,15.70
2022-11-04T06:48:50.925Z,15.89
2022-11-04T06:51:17.486Z,15.97
2022-11-04T06:53:44.222Z,16.22
2022-11-04T06:56:10.812Z,15.64
2022-11-04T06:58:37.337Z,15.80
2022-11-04T07:01:09.121Z,15.91
2022-11-04T07:03:42.078Z,16.31
2022-11-04T07:06:10.234Z,15.98
2022-11-04T07:08:37.180Z,16.16
2022-11-04T07:11:03.892Z,16.22
2022-11-04T07:13:30.394Z,15.75
2022-11-04T07:15:57.383Z,15.30
2022-11-04T07:18:28.962Z,15.34
2022-11-04T07:21:07.152Z,15.09
2022-11-04T07:23:37.129Z,14.66
2022-11-04T07:26:05.636Z,15.15
2022-11-04T07:28:32.935Z,14.46
2022-11-04T07:31:01.534Z,15.23
2022-11-04T07:33:28.668Z,14.67
2022-11-04T07:35:58.483Z,14.95
2022-11-04T07:38:27.784Z,14.89
2022-11-04T07:40:55.810Z,15.16
2022-11-04T07:43:22.486Z,15.10
2022-11-04T07:46:02.364Z,15.00
2022-11-04T07:48:31.129Z,14.88
2022-11-04T07:51:00.789Z,15.02
2022-11-04T07:53:31.209Z,14.97
2022-11-04T07:55:58.925Z,14.87
2022-11-04T07:58:28.124Z,14.68
2022-11-04T08:01:00.415Z,14.75
2022-11-04T08:03:27.451Z,14.92
2022-11-04T08:05:58.571Z,14.98
2022-11-04T08:08:31.137Z,15.37
2022-11-04T08:11:00.617Z,15.04
2022-11-04T08:13:28.518Z,14.89
2022-11-04T08:15:55.704Z,14.70
2022-11-04T08:18:22.334Z,15.38
2022-11-04T08:20:50.413Z,15.10
2022-11-04T08:23:18.508Z,15.45
2022-11-04T08:25:45.985Z,15.74
2022-11-04T08:28:17.528Z,15.16
2022-11-04T08:30:55.962Z,14.98
2022-11-04T08:33:26.848Z,15.08
2022-11-04T08:35:55.129Z,15.72
2022-11-04T08:38:25.584Z,15.18
2022-11-04T08:40:58.606Z,15.27
2022-11-04T08:43:28.352Z,15.58
2022-11-04T08:45:55.179Z,15.34
2022-11-04T08:48:21.989Z,15.21
2022-11-04T08:51:01.781Z,15.80
2022-11-04T08:53:28.577Z,15.22
2022-11-04T08:55:55.779Z,15.78
2022-11-04T08:58:27.113Z,16.37
2022-11-04T09:00:58.013Z,15.74
2022-11-04T09:03:24.716Z,16.16
2022-11-04T09:05:54.619Z,16.17
2022-11-04T09:08:21.200Z,16.18
2022-11-04T09:10:50.485Z,15.64
2022-11-04T09:13:17.558Z,15.60
2022-11-04T09:15:44.071Z,15.46
2022-11-04T09:18:11.013Z,15.48
2022-11-04T09:20:42.256Z,15.68
2022-11-04T09:23:09.711Z,15.64
2022-11-04T09:25:37.289Z,15.81
2022-11-04T09:28:04.659Z,16.06
2022-11-04T09:30:31.450Z,16.75
2022-11-04T09:33:00.937Z,16.80
2022-11-04T09:35:30.023Z,16.77
2022-11-04T09:37:59.241Z,16.50
2022-11-04T09:40:26.030Z,16.96
2022-11-04T09:43:09.484Z,16.24
2022-11-04T09:45:42.158Z,16.08
2022-11-04T09:48:19.534Z,15.82
2022-11-04T09:50:53.788Z,16.62
2022-11-04T09:53:45.455Z,16.91
2022-11-04T09:56:31.969Z,16.48
2022-11-04T09:59:05.954Z,16.07
2022-11-04T10:01:40.761Z,16.80
2022-11-04T10:04:43.666Z,16.92
2022-11-04T10:07:28.481Z,16.92
2022-11-04T10:10:07.240Z,16.63
2022-11-04T10:12:43.245Z,17.18
2022-11-04T10:15:48.625Z,16.85
2022-11-04T10:18:37.339Z,16.95
2022-11-04T10:21:33.696Z,16.67
2022-11-04T10:24:23.672Z,16.82
2022-11-04T10:26:59.054Z,16.75
2022-11-04T10:29:34.176Z,17.00
2022-11-04T10:32:03.379Z,16.95
2022-11-04T10:34:42.097Z,16.97
2022-11-04T10:37:13.073Z,17.08
2022-11-04T10:39:46.747Z,17.05
2022-11-04T10:42:17.676Z,17.09
2022-11-04T10:44:46.754Z,17.16
2022-11-04T10:47:22.237Z,17.44
2022-11-04T10:50:27.123Z,17.46
2022-11-04T10:52:44.811Z,17.34
2022-11-04T10:55:43.182Z,17.68
2022-11-04T10:58:19.080Z,17.99
2022-11-04T11:00:46.325Z,17.98
2022-11-04T11:03:37.477Z,17.45
2022-11-04T11:06:35.306Z,17.45
2022-11-04T11:09:32.063Z,17.30
2022-11-04T11:12:09.836Z,17.38
2022-11-04T11:14:44.851Z,17.69
2022-11-04T11:17:21.042Z,17.51
2022-11-04T11:20:19.375Z,17.82
2022-11-04T11:22:48.042Z,17.81
2022-11-04T11:25:21.050Z,17.67
2022-11-04T11:27:54.723Z,18.11
2022-11-04T11:30:27.375Z,18.02
2022-11-04T11:33:08.432Z,17.71
2022-11-04T11:35:42.637Z,17.86
2022-11-04T11:38:21.177Z,17.83
2022-11-04T11:41:18.428Z,18.01
2022-11-04T11:43:44.575Z,18.55
2022-11-04T11:46:13.074Z,18.14
2022-11-04T11:48:42.972Z,17.88
2022-11-04T11:51:32.023Z,18.14
2022-11-04T11:54:26.279Z,18.17
2022-11-04T11:57:13.063Z,18.36
2022-11-04T12:02:58.308Z,18.65
2022-11-04T12:06:21.890Z,18.89
2022-11-04T12:09:18.288Z,18.57
2022-11-04T12:12:03.222Z,18.23
2022-11-04T12:14:49.176Z,18.40
2022-11-04T12:17:34.845Z,18.50
2022-11-04T12:20:16.466Z,18.34
2022-11-04T12:22:55.469Z,19.00
2022-11-04T12:25:46.479Z,18.92
2022-11-04T12:28:36.530Z,19.04
2022-11-04T12:31:21.872Z,19.03
2022-11-04T12:34:19.813Z,18.55
2022-11-04T12:37:09.061Z,18.67
2022-11-04T12:39:57.369Z,18.77
2022-11-04T12:42:45.072Z,18.75
2022-11-04T12:45:38.782Z,18.42
2022-11-04T12:48:22.761Z,18.45
2022-11-04T12:50:52.362Z,18.78
2022-11-04T12:53:21.710Z,18.45
2022-11-04T12:56:03.822Z,18.40
2022-11-04T12:58:40.072Z,18.29
2022-11-04T13:01:22.042Z,18.40
2022-11-04T13:03:52.702Z,18.22
2022-11-04T13:06:28.523Z,18.35
2022-11-04T13:09:04.763Z,18.69
2022-11-04T13:11:38.025Z,18.36
2022-11-04T13:14:39.929Z,18.37
2022-11-04T13:17:14.947Z,18.16
2022-11-04T13:19:48.792Z,18.36
2022-11-04T13:22:36.939Z,18.27
2022-11-04T13:25:12.845Z,18.23
2022-11-04T13:27:47.606Z,18.52
2022-11-04T13:30:39.634Z,18.48
2022-11-04T13:33:21.674Z,18.43
2022-11-04T13:36:06.759Z,18.33
2022-11-04T13:38:43.043Z,18.28
2022-11-04T13:41:38.984Z,18.33
2022-11-04T13:44:22.646Z,18.37
2022-11-04T13:46:52.857Z,18.47
2022-11-04T13:49:33.994Z,18.38
2022-11-04T13:52:14.129Z,18.23
2022-11-04T13:54:45.708Z,18.29
2022-11-04T13:57:18.884Z,18.49
2022-11-04T14:00:07.049Z,18.27
2022-11-04T14:02:48.539Z,18.16
2022-11-04T14:05:24.035Z,18.38
2022-11-04T14:07:59.734Z,18.40
2022-11-04T14:10:45.353Z,18.28
2022-11-04T14:13:30.790Z,18.46
2022-11-04T14:16:17.650Z,18.56
2022-11-04T14:18:46.762Z,18.50
2022-11-04T14:21:14.871Z,18.45
2022-11-04T14:23:47.648Z,18.59
2022-11-04T14:26:16.910Z,18.69
2022-11-04T14:28:47.020Z,18.69
2022-11-04T14:31:33.878Z,18.64
2022-11-04T14:34:01.198Z,18.73
2022-11-04T14:36:32.864Z,18.75
2022-11-04T14:39:11.533Z,18.76
2022-11-04T14:41:40.943Z,18.71
2022-11-04T14:44:15.692Z,18.65
2022-11-04T14:46:46.428Z,18.73
2022-11-04T14:49:40.676Z,18.47
2022-11-04T14:52:19.511Z,18.39
2022-11-04T14:54:57.904Z,18.35
2022-11-04T14:57:25.200Z,18.37
2022-11-04T14:59:53.174Z,18.28
2022-11-04T15:02:26.000Z,18.16
2022-11-04T15:05:03.062Z,18.22
2022-11-04T15:07:41.630Z,18.13
2022-11-04T15:10:28.775Z,18.08
2022-11-04T15:13:01.025Z,17.91
2022-11-04T15:15:36.443Z,17.88
2022-11-04T15:18:16.710Z,17.78
2022-11-04T15:20:52.810Z,17.82
2022-11-04T15:23:42.960Z,17.80
2022-11-04T15:26:29.364Z,17.80
2022-11-04T15:28:59.033Z,17.70
2022-11-04T15:31:33.181Z,17.71
2022-11-04T15:34:04.536Z,17.79
2022-11-04T15:36:38.468Z,17.64
2022-11-04T15:39:30.245Z,17.56
2022-11-04T15:42:22.422Z,17.52
2022-11-04T15:44:50.515Z,17.53
2022-11-04T15:47:22.717Z,17.48
2022-11-04T15:49:55.022Z,17.37
2022-11-04T15:52:28.649Z,17.37
2022-11-04T15:55:00.594Z,17.41
2022-11-04T15:57:35.064Z,17.40
2022-11-04T16:00:08.892Z,17.46
2022-11-04T16:02:39.948Z,17.32
2022-11-04T16:05:12.790Z,17.38
2022-11-04T16:07:41.352Z,17.22
2022-11-04T16:10:24.877Z,17.21
2022-11-04T16:12:58.594Z,17.32
2022-11-04T16:15:54.062Z,17.16
2022-11-04T16:18:34.276Z,17.13
2022-11-04T16:21:06.551Z,17.34
2022-11-04T16:23:44.342Z,17.42
2022-11-04T16:26:11.919Z,17.31
2022-11-04T16:28:40.711Z,17.19
2022-11-04T16:31:23.065Z,17.15
2022-11-04T16:33:52.704Z,17.04
2022-11-04T16:36:26.830Z,17.00
2022-11-04T16:38:58.372Z,16.94
2022-11-04T16:41:27.224Z,16.91
2022-11-04T16:43:54.554Z,16.75
2022-11-04T16:46:22.245Z,16.76
2022-11-04T16:48:49.595Z,16.61
2022-11-04T16:51:21.682Z,16.62
2022-11-04T16:53:52.370Z,16.65
2022-11-04T16:56:29.002Z,16.73
2022-11-04T16:58:55.784Z,16.73
2022-11-04T17:01:30.146Z,16.69
2022-11-04T17:03:56.954Z,16.66
2022-11-04T17:06:24.215Z,16.61
2022-11-04T17:08:50.869Z,16.54
2022-11-04T17:11:18.362Z,16.47
2022-11-04T17:13:45.072Z,16.48
2022-11-04T17:16:13.996Z,16.36
2022-11-04T17:18:41.711Z,16.31
2022-11-04T17:21:13.261Z,16.30
2022-11-04T17:23:39.941Z,16.28
2022-11-04T17:26:06.648Z,16.21
2022-11-04T17:28:33.574Z,15.98
2022-11-04T17:31:02.763Z,15.74
2022-11-04T17:33:33.281Z,15.60
2022-11-04T17:36:06.322Z,15.76
2022-11-04T17:38:34.126Z,15.94
2022-11-04T17:41:19.328Z,16.07
2022-11-04T17:44:01.270Z,16.09
2022-11-04T17:46:42.641Z,15.92
2022-11-04T17:49:20.029Z,15.81
2022-11-04T17:51:49.502Z,15.85
2022-11-04T17:54:16.498Z,15.76
2022-11-04T17:56:43.282Z,15.71
2022-11-04T17:59:12.405Z,15.64
2022-11-04T18:01:42.602Z,15.57
2022-11-04T18:04:14.474Z,15.55
2022-11-04T18:06:41.173Z,15.52
2022-11-04T18:09:10.957Z,15.76
2022-11-04T18:11:56.899Z,16.15
2022-11-04T18:14:23.728Z,15.82
2022-11-04T18:16:50.580Z,15.76
2022-11-04T18:19:22.864Z,15.70
2022-11-04T18:21:49.906Z,15.62
2022-11-04T18:24:18.991Z,15.51
2022-11-04T18:26:46.597Z,15.33
2022-11-04T18:29:13.205Z,15.26
2022-11-04T18:31:46.154Z,15.28
2022-11-04T18:34:18.860Z,15.35
2022-11-04T18:36:49.333Z,15.45
2022-11-04T18:39:18.511Z,15.30
2022-11-04T18:41:46.051Z,15.40
2022-11-04T18:44:19.362Z,15.23
2022-11-04T18:46:47.364Z,15.13
2022-11-04T18:49:15.968Z,15.06
2022-11-04T18:51:43.728Z,14.95
2022-11-04T18:54:11.484Z,14.87
2022-11-04T18:56:39.515Z,14.86
2022-11-04T18:59:09.946Z,14.82
2022-11-04T19:01:36.875Z,14.78
2022-11-04T19:04:03.867Z,14.75
2022-11-04T19:06:33.537Z,14.77
2022-11-04T19:09:32.071Z,14.75
2022-11-04T19:12:12.210Z,14.68
2022-11-04T19:14:38.874Z,14.72
2022-11-04T19:17:05.531Z,14.70
2022-11-04T19:19:32.875Z,14.64
2022-11-04T19:22:07.211Z,14.32
2022-11-04T19:24:33.973Z,14.06
2022-11-04T19:27:06.260Z,13.84
2022-11-04T19:29:33.292Z,13.73
2022-11-04T19:32:00.546Z,13.60
2022-11-04T19:34:33.961Z,13.72
2022-11-04T19:37:00.646Z,13.70
2022-11-04T19:39:27.953Z,13.73
2022-11-04T19:42:14.983Z,13.72
2022-11-04T19:44:41.672Z,13.78
2022-11-04T19:47:13.138Z,13.71
2022-11-04T19:49:41.899Z,13.74
2022-11-04T19:52:11.960Z,13.89
2022-11-04T19:54:44.390Z,13.83
2022-11-04T19:57:12.647Z,13.55
2022-11-04T19:59:46.063Z,13.54
2022-11-04T20:02:15.225Z,13.59
2022-11-04T20:04:42.043Z,13.56
2022-11-04T20:07:08.724Z,13.51
2022-11-04T20:09:44.309Z,13.42
2022-11-04T20:12:34.158Z,13.42
2022-11-04T20:15:00.923Z,13.42
2022-11-04T20:17:27.495Z,13.36
2022-11-04T20:19:54.102Z,13.26
2022-11-04T20:22:23.599Z,13.15
2022-11-04T20:24:50.102Z,13.11
2022-11-04T20:27:16.935Z,13.02
2022-11-04T20:29:46.787Z,13.02
2022-11-04T20:32:13.424Z,13.13
2022-11-04T20:34:40.313Z,13.17
2022-11-04T20:37:07.008Z,13.20
2022-11-04T20:39:33.599Z,13.01
2022-11-04T20:42:00.177Z,13.01
2022-11-04T20:44:26.811Z,13.11
2022-11-04T20:46:56.095Z,13.01
2022-11-04T20:49:23.468Z,12.95
2022-11-04T20:51:55.598Z,13.09
2022-11-04T20:54:22.541Z,13.11
2022-11-04T20:56:49.352Z,13.08
2022-11-04T20:59:16.841Z,13.09
2022-11-04T21:01:46.324Z,13.00
2022-11-04T21:04:19.052Z,12.82
2022-11-04T21:06:48.797Z,12.93
2022-11-04T21:09:17.777Z,13.17
2022-11-04T21:11:52.600Z,13.15
2022-11-04T21:14:19.631Z,12.88
2022-11-04T21:16:47.007Z,12.75
2022-11-04T21:19:14.558Z,12.75
2022-11-04T21:21:43.105Z,12.60
2022-11-04T21:24:13.043Z,12.57
2022-11-04T21:26:39.860Z,12.69
2022-11-04T21:29:08.869Z,12.68
2022-11-04T21:31:37.267Z,12.71
2022-11-04T21:34:07.708Z,12.85
2022-11-04T21:36:34.385Z,12.81
2022-11-04T21:39:00.961Z,12.86
2022-11-04T21:41:33.283Z,12.79
2022-11-04T21:44:02.420Z,12.63
2022-11-04T21:46:31.841Z,12.46
2022-11-04T21:48:59.109Z,12.45
2022-11-04T21:51:31.223Z,12.47
2022-11-04T21:53:59.230Z,12.46
2022-11-04T21:56:29.300Z,12.58
2022-11-04T21:58:56.639Z,12.77
2022-11-04T22:01:34.033Z,12.84
2022-11-04T22:04:02.148Z,12.97
2022-11-04T22:06:34.206Z,12.81
2022-11-04T22:09:08.228Z,12.68
2022-11-04T22:11:39.875Z,12.64
2022-11-04T22:14:08.480Z,12.60
2022-11-04T22:16:37.846Z,12.90
2022-11-04T22:19:07.679Z,12.88
2022-11-04T22:21:38.333Z,13.14
2022-11-04T22:24:09.005Z,13.14
2022-11-04T22:26:35.735Z,13.19
2022-11-04T22:29:02.336Z,13.19
2022-11-04T22:31:45.370Z,13.30
2022-11-04T22:34:12.680Z,13.79
2022-11-04T22:36:39.890Z,13.56
2022-11-04T22:39:10.535Z,13.48
2022-11-04T22:41:41.679Z,13.56
2022-11-04T22:44:09.431Z,13.63
2022-11-04T22:46:37.008Z,13.56
2022-11-04T22:49:06.982Z,13.62
2022-11-04T22:51:33.553Z,13.87
2022-11-04T22:54:08.769Z,13.58
2022-11-04T22:56:36.439Z,13.66
2022-11-04T22:59:03.924Z,13.56
2022-11-04T23:01:34.174Z,13.51
2022-11-04T23:04:05.070Z,13.29
2022-11-04T23:06:32.037Z,13.31
2022-11-04T23:09:00.587Z,13.52
2022-11-04T23:11:47.016Z,13.56
2022-11-04T23:14:37.365Z,13.73
2022-11-04T23:17:35.330Z,13.54
2022-11-04T23:20:02.583Z,13.61
2022-11-04T23:22:51.565Z,13.50
2022-11-04T23:25:19.250Z,13.35
2022-11-04T23:28:10.250Z,13.48
2022-11-04T23:30:39.721Z,13.71
2022-11-04T23:33:09.172Z,13.44
2022-11-04T23:36:06.481Z,13.22
2022-11-04T23:38:33.574Z,13.33
2022-11-04T23:41:21.920Z,13.48
2022-11-04T23:43:48.424Z,13.54
2022-11-04T23:46:39.381Z,13.34
2022-11-04T23:49:29.772Z,13.63
2022-11-04T23:52:15.301Z,13.36
2022-11-04T23:55:00.538Z,13.50
2022-11-04T23:57:45.397Z,13.38
